VG17 weather

Public forecast

Using degrees Fahrenheit for public forecast. Weather courtesy of forecast.io.

Closest aviation weather report (METAR) to Defense Supply Center Richmond Heliport

Closest report is Chesterfield County Airport, 3.7 nm (6.8 km) WSW. Retrieved 2020/08/13 10:37 UTC (1 minute ago):

KFCI 131037Z AUTO 00000KT 9SM OVC004 23/23 A3006 RMK AO2

Closest aviation forecast (TAF) to Defense Supply Center Richmond Heliport

Closest forecast is Richmond International Airport, 7.9 nm (14.7 km) NE. Retrieved 2020/08/13 06:27 UTC (4 hours ago):

TAF KRIC 130524Z 1306/1406 VRB02KT P6SM SCT015 SCT050 BKN100 TEMPO 1309/1312 5SM BR BKN010 FM131200 08005KT P6SM VCSH BKN030 FM131800 08006KT P6SM VCTS BKN040CB FM140000 03004KT P6SM VCSH BKN020 OVC040